createdAt,value
2023-05-19T03:53:41.176Z,100990.16
2023-05-19T03:56:43.921Z,100989.53
2023-05-19T03:59:46.133Z,100991.34
2023-05-19T04:02:48.792Z,100995.69
2023-05-19T04:05:52.102Z,100997.25
2023-05-19T04:08:54.234Z,100999.94
2023-05-19T04:11:56.679Z,101001.66
2023-05-19T04:14:59.800Z,100999.00
2023-05-19T04:18:02.336Z,101004.56
2023-05-19T04:21:04.771Z,101000.00
2023-05-19T04:24:07.398Z,101011.38
2023-05-19T04:27:12.232Z,101010.53
2023-05-19T04:30:21.949Z,101007.22
2023-05-19T04:33:24.651Z,101014.31
2023-05-19T04:36:27.513Z,101016.28
2023-05-19T04:39:30.234Z,101012.94
2023-05-19T04:42:32.944Z,101019.06
2023-05-19T04:45:37.544Z,101027.94
2023-05-19T04:48:41.054Z,101024.63
2023-05-19T04:51:43.218Z,101027.34
2023-05-19T04:54:46.339Z,101029.25
2023-05-19T04:57:48.816Z,101029.25
2023-05-19T05:00:52.305Z,101027.63
2023-05-19T05:03:55.334Z,101025.84
2023-05-19T05:06:58.295Z,101021.66
2023-05-19T05:10:00.863Z,101039.22
2023-05-19T05:13:04.048Z,101032.38
2023-05-19T05:16:08.762Z,101033.34
2023-05-19T05:19:11.601Z,101033.75
2023-05-19T09:31:18.375Z,101032.66
2023-05-19T09:34:25.034Z,101035.31
2023-05-19T09:37:28.433Z,101019.44
2023-05-19T09:40:32.692Z,101026.44
2023-05-19T09:43:35.396Z,101025.50
2023-05-19T09:46:38.294Z,101022.81
2023-05-19T09:49:47.178Z,101015.78
2023-05-19T09:52:50.272Z,101016.63
2023-05-19T09:55:57.820Z,101016.63
2023-05-19T09:59:00.799Z,101009.47
2023-05-19T10:02:03.617Z,101009.34
2023-05-19T10:05:06.814Z,101000.22
2023-05-19T10:08:10.412Z,100993.78
2023-05-19T10:11:14.788Z,100986.50
2023-05-19T10:14:18.203Z,100978.25
2023-05-19T10:17:22.584Z,100976.94
2023-05-19T10:20:26.889Z,100976.84
2023-05-19T10:23:29.323Z,100982.53
2023-05-19T10:26:32.599Z,100985.56
2023-05-19T10:29:38.259Z,100987.44
2023-05-19T10:32:43.568Z,100981.94
2023-05-19T10:35:47.259Z,100982.56
2023-05-19T10:39:13.162Z,100980.44
2023-05-19T10:42:38.091Z,100982.41
2023-05-19T10:45:53.347Z,100971.75
2023-05-19T10:48:55.978Z,100970.47
2023-05-19T10:51:58.288Z,100965.38
2023-05-19T10:55:01.067Z,100970.97
2023-05-19T10:58:03.717Z,100969.28
2023-05-19T11:01:14.657Z,100960.25
2023-05-19T11:04:17.288Z,100952.69
2023-05-19T11:07:22.849Z,100954.66
2023-05-19T11:10:26.841Z,100939.75
2023-05-19T11:13:41.158Z,100941.97
2023-05-19T11:16:47.496Z,100934.47
2023-05-19T11:19:55.169Z,100926.72
2023-05-19T11:23:09.132Z,100934.47
2023-05-19T11:26:12.865Z,100932.81
2023-05-19T11:29:15.359Z,100938.16
2023-05-19T11:32:20.097Z,100935.75
2023-05-19T11:35:23.210Z,100934.50
2023-05-19T11:38:28.098Z,100937.91
2023-05-19T11:41:31.023Z,100928.13
2023-05-19T11:44:33.475Z,100919.19
2023-05-19T11:47:45.991Z,100930.97
2023-05-19T11:51:00.426Z,100920.66
2023-05-19T11:54:03.308Z,100930.97
2023-05-19T11:57:09.836Z,100934.31
2023-05-19T12:00:12.636Z,100929.28
2023-05-19T12:03:15.320Z,100928.66
2023-05-19T12:06:17.844Z,100929.25
2023-05-19T12:09:23.673Z,100927.56
2023-05-19T12:12:26.111Z,100914.84
2023-05-19T12:15:28.723Z,100905.88
2023-05-19T12:18:33.658Z,100906.53
2023-05-19T12:21:36.291Z,100902.13
2023-05-19T12:24:39.000Z,100888.53
2023-05-19T12:27:43.332Z,100898.91
2023-05-19T12:30:52.548Z,100897.66
2023-05-19T12:33:55.834Z,100891.56
2023-05-19T12:36:58.040Z,100885.22
2023-05-19T12:40:01.987Z,100878.78
2023-05-19T12:43:04.460Z,100875.34
2023-05-19T12:46:13.621Z,100858.69
2023-05-19T12:49:15.952Z,100866.91
2023-05-19T12:52:18.704Z,100865.44
2023-05-19T12:55:22.092Z,100860.03
2023-05-19T12:58:24.484Z,100849.94
2023-05-19T13:01:26.712Z,100864.78
2023-05-19T13:04:29.171Z,100857.63
2023-05-19T13:07:31.318Z,100871.34
2023-05-19T13:10:35.867Z,100858.69
2023-05-19T13:13:38.136Z,100860.84
2023-05-19T13:16:40.670Z,100859.91
2023-05-19T13:19:43.074Z,100847.59
2023-05-19T13:22:45.719Z,100846.28
2023-05-19T13:25:47.851Z,100842.56
2023-05-19T13:28:50.342Z,100845.44
2023-05-19T13:31:52.513Z,100840.69
2023-05-19T13:34:54.905Z,100834.34
2023-05-19T13:37:57.444Z,100827.06
2023-05-19T13:40:59.881Z,100823.41
2023-05-19T13:44:02.073Z,100825.44
2023-05-19T13:47:04.763Z,100822.44
2023-05-19T13:50:07.389Z,100826.44
2023-05-19T13:53:11.410Z,100822.84
2023-05-19T13:56:13.655Z,100819.87
2023-05-19T13:59:19.239Z,100829.09
2023-05-19T14:02:21.389Z,100818.03
2023-05-19T14:05:23.902Z,100817.84
2023-05-19T14:08:26.241Z,100809.91
2023-05-19T14:14:30.543Z,100810.25
2023-05-19T14:23:47.615Z,100806.59
2023-05-19T14:26:50.587Z,100807.81
2023-05-19T14:29:53.085Z,100804.91
2023-05-19T14:32:56.059Z,100805.00
2023-05-19T14:36:00.217Z,100801.09
2023-05-19T14:39:02.870Z,100799.56
2023-05-19T14:42:05.657Z,100805.19
2023-05-19T14:45:08.556Z,100802.28
2023-05-19T14:48:12.005Z,100801.97
2023-05-19T14:51:14.256Z,100798.88
2023-05-19T14:54:16.653Z,100789.97
2023-05-19T14:57:18.806Z,100792.06
